createdAt,value
2023-10-18T00:00:08.344Z,5.01
2023-10-18T00:00:39.036Z,5.02
2023-10-18T00:01:09.726Z,5.04
2023-10-18T00:01:40.438Z,5.04
2023-10-18T00:02:11.070Z,5.05
2023-10-18T00:02:41.662Z,5.04
2023-10-18T00:03:12.443Z,5.02
2023-10-18T00:03:43.327Z,4.99
2023-10-18T00:04:14.083Z,4.96
2023-10-18T00:04:44.680Z,4.99
2023-10-18T00:05:15.277Z,4.96
2023-10-18T00:05:45.891Z,4.94
2023-10-18T00:06:16.486Z,4.96
2023-10-18T00:06:47.138Z,4.97
2023-10-18T00:07:17.724Z,4.96
2023-10-18T00:07:48.315Z,4.96
2023-10-18T00:08:18.932Z,4.96
2023-10-18T00:08:49.531Z,4.94
2023-10-18T00:09:20.131Z,4.94
2023-10-18T00:09:50.803Z,4.94
2023-10-18T00:10:21.344Z,4.93
2023-10-18T00:10:51.997Z,4.88
2023-10-18T00:11:22.594Z,4.91
2023-10-18T00:11:53.242Z,4.90
2023-10-18T00:12:23.845Z,4.88
2023-10-18T00:12:54.480Z,4.86
2023-10-18T00:13:25.056Z,4.86
2023-10-18T00:13:55.660Z,4.83
2023-10-18T00:14:26.254Z,4.86
2023-10-18T00:14:56.875Z,4.84
2023-10-18T00:15:27.485Z,4.83
2023-10-18T00:15:58.112Z,4.83
2023-10-18T00:16:28.680Z,4.79
2023-10-18T00:16:59.283Z,4.80
2023-10-18T00:17:30.081Z,4.77
2023-10-18T00:18:00.746Z,4.79
2023-10-18T00:18:31.531Z,4.77
2023-10-18T00:19:02.303Z,4.75
2023-10-18T00:19:33.125Z,4.77
2023-10-18T00:20:03.783Z,4.72
2023-10-18T00:20:34.379Z,4.72
2023-10-18T00:21:05.059Z,4.72
2023-10-18T00:21:35.662Z,4.71
2023-10-18T00:22:06.284Z,4.71
2023-10-18T00:22:36.871Z,4.71
2023-10-18T00:23:07.475Z,4.71
2023-10-18T00:23:38.093Z,4.69
2023-10-18T00:24:08.719Z,4.72
2023-10-18T00:24:39.416Z,4.71
2023-10-18T00:25:10.161Z,4.69
2023-10-18T00:25:40.734Z,4.69
2023-10-18T00:26:11.372Z,4.68
2023-10-18T00:26:42.033Z,4.68
2023-10-18T00:27:12.592Z,4.67
2023-10-18T00:27:43.233Z,4.65
2023-10-18T00:28:13.894Z,4.67
2023-10-18T00:28:44.515Z,4.65
2023-10-18T00:29:15.149Z,4.62
2023-10-18T00:29:45.771Z,4.62
2023-10-18T00:30:16.379Z,4.61
2023-10-18T00:30:47.091Z,4.62
2023-10-18T00:31:17.706Z,4.64
2023-10-18T00:31:48.491Z,4.64
2023-10-18T00:32:19.104Z,4.64
2023-10-18T00:32:49.792Z,4.65
2023-10-18T00:33:20.477Z,4.64
2023-10-18T00:33:51.150Z,4.65
2023-10-18T00:34:21.816Z,4.65
2023-10-18T00:34:52.420Z,4.67
2023-10-18T00:35:23.766Z,4.64
2023-10-18T00:35:53.611Z,4.62
2023-10-18T00:36:24.241Z,4.59
2023-10-18T00:36:54.874Z,4.59
2023-10-18T00:37:25.431Z,4.59
2023-10-18T00:37:56.805Z,4.57
2023-10-18T00:38:26.947Z,4.59
2023-10-18T00:38:57.547Z,4.59
2023-10-18T00:39:28.406Z,4.57
2023-10-18T00:39:58.669Z,4.57
2023-10-18T00:40:29.242Z,4.56
2023-10-18T00:40:59.855Z,4.54
2023-10-18T00:41:30.495Z,4.54
2023-10-18T00:42:01.103Z,4.51
2023-10-18T00:42:31.753Z,4.50
2023-10-18T00:43:02.418Z,4.50
2023-10-18T00:43:33.105Z,4.49
2023-10-18T00:44:03.683Z,4.47
2023-10-18T00:44:34.284Z,4.46
2023-10-18T00:45:04.899Z,4.46
2023-10-18T00:45:35.510Z,4.46
2023-10-18T00:46:06.155Z,4.46
2023-10-18T00:46:36.796Z,4.47
2023-10-18T00:47:07.410Z,4.46
2023-10-18T00:47:38.069Z,4.47
2023-10-18T00:48:08.653Z,4.47
2023-10-18T00:48:39.278Z,4.47
2023-10-18T00:49:09.918Z,4.49
2023-10-18T00:49:40.469Z,4.49
2023-10-18T00:50:11.092Z,4.50
2023-10-18T00:50:41.675Z,4.49
2023-10-18T00:51:12.283Z,4.50
2023-10-18T00:51:42.944Z,4.47
2023-10-18T00:52:13.595Z,4.49
2023-10-18T00:52:44.149Z,4.50
2023-10-18T00:53:14.817Z,4.47
2023-10-18T00:53:45.379Z,4.50
2023-10-18T00:54:16.026Z,4.49
2023-10-18T00:54:46.663Z,4.49
2023-10-18T00:55:17.246Z,4.46
2023-10-18T00:55:47.885Z,4.46
2023-10-18T00:56:18.459Z,4.44
2023-10-18T00:56:49.122Z,4.42
2023-10-18T00:57:19.708Z,4.36
2023-10-18T00:57:50.464Z,4.36
2023-10-18T00:58:21.123Z,4.35
2023-10-18T00:58:51.726Z,4.36
2023-10-18T00:59:22.381Z,4.32
2023-10-18T01:00:00.499Z,4.32
2023-10-18T01:00:23.733Z,4.34
2023-10-18T01:01:03.113Z,4.34
2023-10-18T01:01:32.776Z,4.34
2023-10-18T01:02:06.272Z,4.31
2023-10-18T01:02:34.413Z,4.31
2023-10-18T01:03:03.795Z,4.32
2023-10-18T01:03:34.679Z,4.32
2023-10-18T01:04:05.449Z,4.32
2023-10-18T01:04:28.728Z,4.32
2023-10-18T01:04:59.314Z,4.31
2023-10-18T01:05:29.938Z,4.32
2023-10-18T01:06:00.549Z,4.31
2023-10-18T01:06:31.258Z,4.31
2023-10-18T01:07:02.058Z,4.31
2023-10-18T01:07:32.829Z,4.32
2023-10-18T01:08:03.522Z,4.31
2023-10-18T01:08:34.181Z,4.29
2023-10-18T01:09:04.810Z,4.29
2023-10-18T01:09:35.490Z,4.28
2023-10-18T01:10:06.157Z,4.29
2023-10-18T01:10:36.725Z,4.26
2023-10-18T01:11:07.380Z,4.28
2023-10-18T01:11:37.981Z,4.26
2023-10-18T01:12:08.574Z,4.25
2023-10-18T01:12:39.238Z,4.24
2023-10-18T01:13:09.875Z,4.25
2023-10-18T01:13:40.479Z,4.24
2023-10-18T01:14:11.154Z,4.24
2023-10-18T01:14:41.760Z,4.20
2023-10-18T01:15:12.359Z,4.20
2023-10-18T01:15:42.986Z,4.21
2023-10-18T01:16:13.631Z,4.17
2023-10-18T01:16:44.264Z,4.20
2023-10-18T01:17:14.861Z,4.20
2023-10-18T01:17:45.501Z,4.18
2023-10-18T01:18:16.135Z,4.20
2023-10-18T01:18:46.765Z,4.21
2023-10-18T01:19:17.468Z,4.20
2023-10-18T01:19:48.054Z,4.18
2023-10-18T01:20:18.655Z,4.20
2023-10-18T01:20:49.396Z,4.20
2023-10-18T01:21:19.990Z,4.20
2023-10-18T01:21:50.651Z,4.21
2023-10-18T01:22:21.242Z,4.18
2023-10-18T01:22:51.849Z,4.20
2023-10-18T01:23:22.486Z,4.21
2023-10-18T01:23:53.106Z,4.20
2023-10-18T01:24:23.733Z,4.21
2023-10-18T01:24:54.365Z,4.24
2023-10-18T01:25:24.953Z,4.24
2023-10-18T01:25:55.588Z,4.21
2023-10-18T01:26:26.230Z,4.25
2023-10-18T01:26:56.844Z,4.24
2023-10-18T01:27:27.444Z,4.25
2023-10-18T01:27:58.084Z,4.21
2023-10-18T01:28:28.665Z,4.24
2023-10-18T01:28:59.293Z,4.25
2023-10-18T01:29:30.078Z,4.21
2023-10-18T01:30:00.711Z,4.18
2023-10-18T01:30:31.350Z,4.20
2023-10-18T01:31:02.011Z,4.18
2023-10-18T01:31:32.779Z,4.18
2023-10-18T01:32:03.577Z,4.18
2023-10-18T01:32:34.159Z,4.18
2023-10-18T01:33:04.829Z,4.18
2023-10-18T01:33:35.396Z,4.17
2023-10-18T01:34:06.076Z,4.20
2023-10-18T01:34:36.682Z,4.20
2023-10-18T01:35:07.289Z,4.17
2023-10-18T01:35:37.893Z,4.17
2023-10-18T01:36:08.528Z,4.16
2023-10-18T01:36:39.196Z,4.20
2023-10-18T01:37:09.879Z,4.18
2023-10-18T01:37:40.487Z,4.18
2023-10-18T01:38:11.089Z,4.20
2023-10-18T01:38:41.692Z,4.18
2023-10-18T01:39:12.313Z,4.17
2023-10-18T01:39:42.936Z,4.17
2023-10-18T01:40:13.557Z,4.20
2023-10-18T01:40:44.145Z,4.20
2023-10-18T01:41:14.752Z,4.20
2023-10-18T01:41:45.375Z,4.18
2023-10-18T01:42:15.986Z,4.18
2023-10-18T01:42:46.614Z,4.18
2023-10-18T01:43:17.200Z,4.16
2023-10-18T01:43:47.807Z,4.17
2023-10-18T01:44:18.408Z,4.14
2023-10-18T01:44:49.019Z,4.17
2023-10-18T01:45:19.627Z,4.14
2023-10-18T01:45:50.246Z,4.14
2023-10-18T01:46:20.913Z,4.17
2023-10-18T01:46:51.529Z,4.17
2023-10-18T01:47:22.183Z,4.16
2023-10-18T01:47:54.218Z,4.16
2023-10-18T01:48:23.802Z,4.17
2023-10-18T01:48:54.439Z,4.18
2023-10-18T01:49:25.015Z,4.18
2023-10-18T01:49:55.620Z,4.20
2023-10-18T01:50:26.198Z,4.20
2023-10-18T01:50:56.799Z,4.21
2023-10-18T01:51:27.415Z,4.21
2023-10-18T01:51:58.085Z,4.21
2023-10-18T01:52:28.678Z,4.21
2023-10-18T01:52:59.279Z,4.21
2023-10-18T01:53:29.907Z,4.24
2023-10-18T01:54:00.514Z,4.24
2023-10-18T01:54:31.118Z,4.24
2023-10-18T01:55:01.789Z,4.24
2023-10-18T01:55:32.342Z,4.25
2023-10-18T01:56:02.954Z,4.24
2023-10-18T01:56:33.552Z,4.21
2023-10-18T01:57:04.195Z,4.28
2023-10-18T01:57:34.746Z,4.25
2023-10-18T01:58:05.402Z,4.25
2023-10-18T01:58:36.082Z,4.25
2023-10-18T01:59:06.694Z,4.25
2023-10-18T01:59:37.289Z,4.26
2023-10-18T02:00:07.942Z,4.26
2023-10-18T02:00:38.523Z,4.25
2023-10-18T02:01:09.213Z,4.21
2023-10-18T02:01:39.821Z,4.21
2023-10-18T02:02:10.446Z,4.21
2023-10-18T02:02:41.145Z,4.21
2023-10-18T02:03:11.886Z,4.20
2023-10-18T02:03:42.559Z,4.20
2023-10-18T02:04:13.293Z,4.17
2023-10-18T02:05:14.441Z,4.18
2023-10-18T02:05:45.048Z,4.18
2023-10-18T02:06:15.647Z,4.16
2023-10-18T02:06:46.271Z,4.16
2023-10-18T02:07:16.918Z,4.18
2023-10-18T02:07:47.483Z,4.17
2023-10-18T02:08:18.080Z,4.20
2023-10-18T02:08:48.686Z,4.18
2023-10-18T02:09:19.419Z,4.17
2023-10-18T02:09:51.098Z,4.21
2023-10-18T02:10:20.866Z,4.20
2023-10-18T02:10:51.449Z,4.20
2023-10-18T02:11:22.058Z,4.21
2023-10-18T02:11:52.649Z,4.21
2023-10-18T02:12:23.268Z,4.24
2023-10-18T02:12:53.872Z,4.20
2023-10-18T02:13:24.474Z,4.25
2023-10-18T02:13:55.052Z,4.24
2023-10-18T02:14:25.653Z,4.24
2023-10-18T02:14:56.282Z,4.21
2023-10-18T02:15:26.886Z,4.24
2023-10-18T02:15:57.543Z,4.25
2023-10-18T02:16:28.184Z,4.26
2023-10-18T02:16:58.824Z,4.24
2023-10-18T02:17:29.509Z,4.24
2023-10-18T02:18:00.134Z,4.21
2023-10-18T02:18:30.809Z,4.21
2023-10-18T02:19:01.443Z,4.21
2023-10-18T02:19:32.253Z,4.24
2023-10-18T02:20:02.404Z,4.21
2023-10-18T02:20:33.014Z,4.20
2023-10-18T02:21:03.609Z,4.21
2023-10-18T02:21:34.218Z,4.24
2023-10-18T02:22:04.853Z,4.24
2023-10-18T02:22:35.460Z,4.20
2023-10-18T02:23:06.057Z,4.21
2023-10-18T02:23:36.697Z,4.24
2023-10-18T02:24:07.255Z,4.20
2023-10-18T02:24:38.032Z,4.25
2023-10-18T02:25:08.786Z,4.25
2023-10-18T02:25:39.365Z,4.24
2023-10-18T02:26:10.067Z,4.21
2023-10-18T02:26:40.656Z,4.21
2023-10-18T02:27:11.302Z,4.24
2023-10-18T02:27:41.884Z,4.24
2023-10-18T02:28:12.511Z,4.21
2023-10-18T02:28:43.107Z,4.21
2023-10-18T02:29:13.797Z,4.20
2023-10-18T02:29:44.402Z,4.21
2023-10-18T02:30:15.097Z,4.24
2023-10-18T02:30:45.669Z,4.20
2023-10-18T02:31:16.370Z,4.18
2023-10-18T02:31:47.012Z,4.21
2023-10-18T02:32:17.634Z,4.18
2023-10-18T02:32:48.285Z,4.20
2023-10-18T02:33:18.860Z,4.20
2023-10-18T02:33:49.514Z,4.20
2023-10-18T02:34:29.847Z,4.17
2023-10-18T02:34:51.438Z,4.16
2023-10-18T02:35:21.334Z,4.14
2023-10-18T02:35:51.918Z,4.13
2023-10-18T02:36:22.599Z,4.11
2023-10-18T02:36:53.232Z,4.13
2023-10-18T02:37:23.812Z,4.11
2023-10-18T02:37:54.442Z,4.13
2023-10-18T02:38:25.022Z,4.10
2023-10-18T02:38:55.631Z,4.08
2023-10-18T02:39:26.234Z,4.08
2023-10-18T02:40:05.110Z,4.10
2023-10-18T02:40:28.206Z,4.11
2023-10-18T02:40:58.171Z,4.10
2023-10-18T02:41:28.766Z,4.08
2023-10-18T02:41:59.371Z,4.10
2023-10-18T02:42:29.990Z,4.11
2023-10-18T02:43:00.649Z,4.11
2023-10-18T02:43:31.228Z,4.10
2023-10-18T02:44:01.890Z,4.08
2023-10-18T02:44:32.518Z,4.10
2023-10-18T02:45:03.129Z,4.11
2023-10-18T02:45:33.717Z,4.08
2023-10-18T02:46:04.448Z,4.08
2023-10-18T02:46:35.086Z,4.10
2023-10-18T02:47:05.736Z,4.10
2023-10-18T02:47:36.347Z,4.08
2023-10-18T02:48:06.955Z,4.10
2023-10-18T02:48:37.515Z,4.08
2023-10-18T02:49:08.144Z,4.10
2023-10-18T02:49:38.783Z,4.11
2023-10-18T02:50:09.405Z,4.10
2023-10-18T02:50:40.007Z,4.07
2023-10-18T02:51:10.599Z,4.07
2023-10-18T02:51:41.223Z,4.06
2023-10-18T02:52:11.818Z,3.99
2023-10-18T02:52:42.405Z,4.02
2023-10-18T02:53:13.010Z,3.99
2023-10-18T02:53:43.634Z,4.00
2023-10-18T02:54:14.246Z,3.98
2023-10-18T02:54:44.881Z,3.96
2023-10-18T02:55:15.514Z,3.96
2023-10-18T02:55:46.098Z,3.98
2023-10-18T02:56:16.702Z,3.96
2023-10-18T02:56:47.367Z,3.96
2023-10-18T02:57:17.976Z,3.96
2023-10-18T02:57:48.679Z,3.96
2023-10-18T02:58:19.350Z,3.96
2023-10-18T02:58:49.979Z,3.98
2023-10-18T02:59:20.557Z,3.99
2023-10-18T02:59:51.189Z,3.99
2023-10-18T03:00:21.923Z,4.00
2023-10-18T03:00:52.518Z,4.02
2023-10-18T03:01:23.286Z,4.02
2023-10-18T03:01:53.913Z,4.04
2023-10-18T03:02:24.504Z,4.04
2023-10-18T03:02:55.126Z,4.06
2023-10-18T03:03:25.744Z,4.04
2023-10-18T03:03:56.381Z,4.04
2023-10-18T03:04:27.057Z,4.04
2023-10-18T03:04:57.718Z,4.02
2023-10-18T03:05:28.304Z,4.04
2023-10-18T03:05:58.908Z,4.04
2023-10-18T03:06:29.581Z,4.02
2023-10-18T03:07:00.197Z,4.04
2023-10-18T03:07:30.778Z,4.02
2023-10-18T03:08:01.381Z,4.00
2023-10-18T03:08:31.998Z,3.99
2023-10-18T03:09:02.602Z,4.00
2023-10-18T03:09:33.248Z,4.00
2023-10-18T03:10:03.896Z,3.99
2023-10-18T03:10:34.535Z,3.99
2023-10-18T03:11:05.152Z,3.98
2023-10-18T03:11:35.739Z,3.99
2023-10-18T03:12:06.344Z,3.99
2023-10-18T03:12:36.966Z,3.96
2023-10-18T03:13:07.609Z,3.99
2023-10-18T03:13:38.222Z,3.99
2023-10-18T03:14:08.801Z,3.99
2023-10-18T03:14:39.442Z,3.98
2023-10-18T03:15:10.047Z,3.98
2023-10-18T03:15:48.718Z,3.98
2023-10-18T03:16:12.081Z,3.98
2023-10-18T03:16:42.000Z,3.96
2023-10-18T03:17:12.701Z,3.96
2023-10-18T03:17:43.361Z,3.95
2023-10-18T03:18:13.978Z,3.93
2023-10-18T03:18:44.633Z,3.92
2023-10-18T03:19:15.248Z,3.93
2023-10-18T03:19:45.866Z,3.90
2023-10-18T03:20:16.453Z,3.92
2023-10-18T03:20:47.070Z,3.92
2023-10-18T03:21:17.676Z,3.92
2023-10-18T03:21:48.521Z,3.92
2023-10-18T03:22:19.175Z,3.89
2023-10-18T03:22:49.753Z,3.90
2023-10-18T03:23:20.365Z,3.93
2023-10-18T03:23:50.953Z,3.92
2023-10-18T03:24:21.578Z,3.95
2023-10-18T03:24:52.206Z,3.93
2023-10-18T03:25:22.841Z,3.93
2023-10-18T03:25:53.454Z,3.95
2023-10-18T03:26:24.048Z,3.96
2023-10-18T03:26:54.635Z,3.96
2023-10-18T03:27:25.236Z,3.98
2023-10-18T03:27:55.919Z,3.98
2023-10-18T03:28:26.536Z,3.98
2023-10-18T03:29:05.749Z,3.98
2023-10-18T03:29:27.440Z,3.98
2023-10-18T03:29:58.101Z,4.04
2023-10-18T03:30:28.694Z,4.00
2023-10-18T03:31:07.899Z,4.02
2023-10-18T03:31:29.807Z,4.04
2023-10-18T03:32:07.969Z,4.02
2023-10-18T03:32:31.164Z,4.08
2023-10-18T03:33:01.797Z,4.06
2023-10-18T03:33:32.366Z,4.08
2023-10-18T03:34:03.053Z,4.07
2023-10-18T03:34:33.725Z,4.11
2023-10-18T03:35:04.302Z,4.11
2023-10-18T03:35:34.922Z,4.13
2023-10-18T03:36:18.154Z,4.16
2023-10-18T03:36:36.896Z,4.17
2023-10-18T03:37:06.796Z,4.20
2023-10-18T03:37:37.376Z,4.21
2023-10-18T03:38:07.981Z,4.24
2023-10-18T03:38:38.591Z,4.24
2023-10-18T03:39:09.212Z,4.25
2023-10-18T03:39:39.806Z,4.28
2023-10-18T03:40:10.487Z,4.28
2023-10-18T03:40:41.090Z,4.29
2023-10-18T03:41:11.700Z,4.31
2023-10-18T03:41:42.372Z,4.32
2023-10-18T03:42:12.973Z,4.35
2023-10-18T03:42:43.586Z,4.36
2023-10-18T03:43:14.208Z,4.36
2023-10-18T03:43:44.849Z,4.42
2023-10-18T03:44:15.484Z,4.42
2023-10-18T03:44:46.080Z,4.44
2023-10-18T03:45:16.686Z,4.44
2023-10-18T03:45:47.394Z,4.49
2023-10-18T03:46:18.092Z,4.50
2023-10-18T03:46:48.921Z,4.53
2023-10-18T03:47:19.633Z,4.56
2023-10-18T03:47:50.216Z,4.57
2023-10-18T03:48:20.820Z,4.59
2023-10-18T03:48:51.518Z,4.61
2023-10-18T03:49:22.104Z,4.65
2023-10-18T03:49:52.691Z,4.67
2023-10-18T03:50:23.303Z,4.68
2023-10-18T03:50:56.028Z,4.71
2023-10-18T03:51:24.919Z,4.74
2023-10-18T03:51:54.956Z,4.74
2023-10-18T03:52:25.576Z,4.75
2023-10-18T03:52:56.191Z,4.75
2023-10-18T03:53:26.815Z,4.80
2023-10-18T03:53:57.569Z,4.86
2023-10-18T03:54:28.182Z,4.86
2023-10-18T03:54:58.764Z,4.87
2023-10-18T03:55:29.394Z,4.91
2023-10-18T03:56:00.000Z,4.93
2023-10-18T03:56:30.623Z,4.93
2023-10-18T03:57:01.315Z,4.94
2023-10-18T03:57:31.912Z,4.96
2023-10-18T03:58:02.560Z,4.97
2023-10-18T03:58:33.120Z,5.01
2023-10-18T03:59:03.783Z,5.01
2023-10-18T03:59:34.366Z,5.04
2023-10-18T04:00:04.961Z,5.04
2023-10-18T04:00:35.562Z,5.06
2023-10-18T04:01:06.204Z,5.05
2023-10-18T04:01:36.904Z,5.06
2023-10-18T04:02:07.590Z,5.06
2023-10-18T04:02:38.233Z,5.08
2023-10-18T04:03:11.147Z,5.06
2023-10-18T04:03:39.136Z,5.06
2023-10-18T04:04:09.834Z,5.05
2023-10-18T04:04:40.532Z,5.06
2023-10-18T04:05:11.177Z,5.05
2023-10-18T04:05:41.784Z,5.06
2023-10-18T04:06:12.386Z,5.05
2023-10-18T04:06:43.062Z,5.06
2023-10-18T04:07:13.870Z,5.04
2023-10-18T04:07:44.653Z,5.04
2023-10-18T04:08:15.468Z,4.99
2023-10-18T04:08:45.623Z,5.01
2023-10-18T04:09:16.267Z,5.01
2023-10-18T04:09:46.925Z,4.99
2023-10-18T04:10:17.604Z,4.99
2023-10-18T04:10:48.189Z,4.99
2023-10-18T04:11:18.767Z,4.99
2023-10-18T04:11:49.371Z,4.97
2023-10-18T04:12:19.975Z,4.97
2023-10-18T04:12:50.637Z,4.96
2023-10-18T04:13:21.242Z,4.94
2023-10-18T04:13:51.859Z,4.93
2023-10-18T04:14:22.502Z,4.93
2023-10-18T04:14:53.135Z,4.93
2023-10-18T04:15:23.728Z,4.91
2023-10-18T04:15:54.349Z,4.93
2023-10-18T04:16:24.996Z,4.90
2023-10-18T04:16:55.653Z,4.90
2023-10-18T04:17:26.230Z,4.88
2023-10-18T04:17:56.894Z,4.88
2023-10-18T04:18:27.840Z,4.88
2023-10-18T04:18:57.951Z,4.86
2023-10-18T04:19:28.797Z,4.86
2023-10-18T04:19:58.910Z,4.83
2023-10-18T04:20:29.508Z,4.84
2023-10-18T04:21:00.100Z,4.83
2023-10-18T04:21:30.710Z,4.79
2023-10-18T04:22:01.344Z,4.75
2023-10-18T04:22:32.074Z,4.79
2023-10-18T04:23:02.664Z,4.80
2023-10-18T04:23:33.271Z,4.79
2023-10-18T04:24:03.878Z,4.79
2023-10-18T04:24:34.474Z,4.80
2023-10-18T04:25:05.127Z,4.79
2023-10-18T04:25:35.729Z,4.80
2023-10-18T04:26:06.327Z,4.79
2023-10-18T04:26:36.932Z,4.79
2023-10-18T04:27:07.527Z,4.83
2023-10-18T04:27:38.135Z,4.83
2023-10-18T04:28:08.764Z,4.80
2023-10-18T04:28:39.358Z,4.83
2023-10-18T04:29:09.941Z,4.80
2023-10-18T04:29:40.582Z,4.84
2023-10-18T04:30:11.191Z,4.83
2023-10-18T04:30:41.804Z,4.83
2023-10-18T04:31:12.473Z,4.83
2023-10-18T04:31:43.162Z,4.80
2023-10-18T04:32:13.728Z,4.83
2023-10-18T04:32:44.384Z,4.79
2023-10-18T04:33:15.017Z,4.79
2023-10-18T04:33:45.659Z,4.79
2023-10-18T04:34:16.290Z,4.77
2023-10-18T04:34:46.917Z,4.77
2023-10-18T04:35:17.517Z,4.77
2023-10-18T04:35:48.123Z,4.77
2023-10-18T04:36:18.760Z,4.80
2023-10-18T04:36:49.373Z,4.79
2023-10-18T04:37:19.981Z,4.80
2023-10-18T04:37:50.588Z,4.80
2023-10-18T04:38:21.191Z,4.83
2023-10-18T04:38:51.795Z,4.79
2023-10-18T04:39:22.399Z,4.83
2023-10-18T04:39:53.017Z,4.80
2023-10-18T04:40:23.715Z,4.79
2023-10-18T04:40:54.402Z,4.83
2023-10-18T04:41:25.639Z,4.83
2023-10-18T04:41:55.281Z,4.83
2023-10-18T04:42:25.884Z,4.84
2023-10-18T04:42:56.547Z,4.84
2023-10-18T04:43:27.176Z,4.84
2023-10-18T04:43:57.772Z,4.84
2023-10-18T04:44:28.340Z,4.83
2023-10-18T04:44:58.949Z,4.84
2023-10-18T04:45:29.670Z,4.80
2023-10-18T04:46:00.352Z,4.80
2023-10-18T04:46:31.050Z,4.79
2023-10-18T04:47:01.816Z,4.77
2023-10-18T04:47:32.493Z,4.79
2023-10-18T04:48:03.146Z,4.77
2023-10-18T04:48:33.695Z,4.77
2023-10-18T04:49:04.316Z,4.79
2023-10-18T04:49:34.948Z,4.74
2023-10-18T04:50:05.569Z,4.75
2023-10-18T04:50:36.141Z,4.74
2023-10-18T04:51:06.746Z,4.74
2023-10-18T04:51:37.354Z,4.72
2023-10-18T04:52:08.068Z,4.71
2023-10-18T04:52:38.801Z,4.71
2023-10-18T04:53:09.423Z,4.71
2023-10-18T04:53:40.001Z,4.72
2023-10-18T04:54:11.702Z,4.68
2023-10-18T04:54:41.199Z,4.68
2023-10-18T04:55:11.814Z,4.65
2023-10-18T04:55:42.443Z,4.67
2023-10-18T04:56:13.107Z,4.62
2023-10-18T04:56:43.750Z,4.64
2023-10-18T04:57:14.306Z,4.62
2023-10-18T04:57:44.922Z,4.59
2023-10-18T04:58:15.550Z,4.59
2023-10-18T04:58:46.146Z,4.61
2023-10-18T04:59:16.745Z,4.59
2023-10-18T04:59:47.436Z,4.57
2023-10-18T05:00:18.006Z,4.61
2023-10-18T05:00:48.741Z,4.57
2023-10-18T05:01:19.334Z,4.57
2023-10-18T05:01:49.947Z,4.56
2023-10-18T05:02:20.529Z,4.54
2023-10-18T05:02:51.210Z,4.56
2023-10-18T05:03:22.313Z,4.53
2023-10-18T05:03:52.198Z,4.51
2023-10-18T05:04:22.807Z,4.53
2023-10-18T05:04:53.373Z,4.50
2023-10-18T05:05:23.991Z,4.50
2023-10-18T05:05:54.636Z,4.51
2023-10-18T05:06:25.215Z,4.49
2023-10-18T05:06:55.881Z,4.49
2023-10-18T05:07:26.529Z,4.47
2023-10-18T05:07:57.178Z,4.49
2023-10-18T05:08:27.735Z,4.49
2023-10-18T05:08:58.353Z,4.47
2023-10-18T05:09:29.151Z,4.47
2023-10-18T05:09:59.955Z,4.50
2023-10-18T05:10:30.525Z,4.47
2023-10-18T05:11:01.151Z,4.49
2023-10-18T05:11:31.761Z,4.46
2023-10-18T05:12:02.365Z,4.49
2023-10-18T05:12:32.978Z,4.50
2023-10-18T05:13:03.617Z,4.50
2023-10-18T05:13:34.191Z,4.49
2023-10-18T05:14:04.820Z,4.47
2023-10-18T05:14:50.127Z,4.49
2023-10-18T05:15:06.812Z,4.47
2023-10-18T05:15:39.514Z,4.50
2023-10-18T05:16:07.463Z,4.49
2023-10-18T05:16:38.143Z,4.49
2023-10-18T05:17:08.822Z,4.50
2023-10-18T05:17:39.430Z,4.51
2023-10-18T05:18:10.085Z,4.54
2023-10-18T05:18:40.530Z,4.57
2023-10-18T05:19:11.192Z,4.57
2023-10-18T05:19:41.815Z,4.64
2023-10-18T05:20:12.450Z,4.71
2023-10-18T05:20:43.070Z,4.77
2023-10-18T05:21:13.655Z,4.83
2023-10-18T05:21:44.279Z,4.88
2023-10-18T05:22:14.895Z,4.93
2023-10-18T05:22:45.522Z,4.99
2023-10-18T05:23:16.105Z,5.06
2023-10-18T05:23:46.692Z,5.11
2023-10-18T05:24:17.316Z,5.14
2023-10-18T05:24:47.485Z,5.19
2023-10-18T05:25:17.982Z,5.23
2023-10-18T05:25:48.408Z,5.24
2023-10-18T05:26:18.837Z,5.27
2023-10-18T05:26:49.451Z,5.32
2023-10-18T05:27:20.058Z,5.35
2023-10-18T05:27:50.706Z,5.38
2023-10-18T05:28:21.338Z,5.40
2023-10-18T05:28:51.925Z,5.42
2023-10-18T05:29:22.551Z,5.44
2023-10-18T05:29:53.180Z,5.45
2023-10-18T05:30:23.787Z,5.47
2023-10-18T05:30:54.470Z,5.48
2023-10-18T05:31:25.227Z,5.48
2023-10-18T05:31:55.891Z,5.48
2023-10-18T05:32:38.236Z,5.49
2023-10-18T05:32:57.867Z,5.51
2023-10-18T05:33:27.748Z,5.51
2023-10-18T05:33:58.373Z,5.52
2023-10-18T05:34:29.012Z,5.49
2023-10-18T05:35:12.480Z,5.55
2023-10-18T05:35:31.026Z,5.52
2023-10-18T05:36:00.912Z,5.52
2023-10-18T05:36:31.706Z,5.55
2023-10-18T05:37:02.368Z,5.55
2023-10-18T05:37:32.587Z,5.52
2023-10-18T05:38:02.958Z,5.51
2023-10-18T05:38:33.349Z,5.51
2023-10-18T05:39:03.742Z,5.51
2023-10-18T05:39:34.466Z,5.51
2023-10-18T05:40:04.939Z,5.48
2023-10-18T05:40:35.336Z,5.51
2023-10-18T05:41:05.705Z,5.49
2023-10-18T05:41:36.102Z,5.51
2023-10-18T05:42:06.500Z,5.49
2023-10-18T05:42:36.904Z,5.49
2023-10-18T05:43:07.362Z,5.51
2023-10-18T05:43:37.901Z,5.51
2023-10-18T05:44:08.279Z,5.48
2023-10-18T05:44:38.699Z,5.51
2023-10-18T05:45:09.057Z,5.51
2023-10-18T05:45:39.459Z,5.51
2023-10-18T05:46:09.881Z,5.49
2023-10-18T05:46:40.437Z,5.49
2023-10-18T05:47:10.868Z,5.48
2023-10-18T05:47:41.282Z,5.49
2023-10-18T05:48:11.664Z,5.51
2023-10-18T05:48:42.086Z,5.49
2023-10-18T05:49:12.523Z,5.49
2023-10-18T05:49:42.898Z,5.49
2023-10-18T05:50:13.297Z,5.52
2023-10-18T05:50:43.683Z,5.55
2023-10-18T05:51:17.697Z,5.55
2023-10-18T05:51:45.629Z,5.55
2023-10-18T05:52:15.391Z,5.56
2023-10-18T05:52:45.739Z,5.56
2023-10-18T05:53:16.152Z,5.55
2023-10-18T05:53:46.534Z,5.56
2023-10-18T05:54:16.936Z,5.55
2023-10-18T05:54:47.368Z,5.56
2023-10-18T05:55:17.774Z,5.56
2023-10-18T05:55:48.128Z,5.56
2023-10-18T05:56:18.536Z,5.56
2023-10-18T05:56:48.925Z,5.56
2023-10-18T05:57:19.322Z,5.56
2023-10-18T05:57:49.801Z,5.58
2023-10-18T05:58:20.296Z,5.59
2023-10-18T05:58:50.684Z,5.59
2023-10-18T05:59:21.259Z,5.60
2023-10-18T06:00:01.814Z,5.60
2023-10-18T06:00:22.639Z,5.60
2023-10-18T06:00:53.149Z,5.59
2023-10-18T06:01:23.690Z,5.62
2023-10-18T06:01:54.110Z,5.62
2023-10-18T06:02:24.905Z,5.59
2023-10-18T06:02:55.013Z,5.60
2023-10-18T06:03:25.417Z,5.60
2023-10-18T06:03:55.882Z,5.60
2023-10-18T06:04:26.590Z,5.60
2023-10-18T06:04:57.201Z,5.62
2023-10-18T06:05:27.055Z,5.63
2023-10-18T06:05:57.466Z,5.62
2023-10-18T06:06:27.858Z,5.63
2023-10-18T06:06:58.290Z,5.62
2023-10-18T06:07:28.725Z,5.63
2023-10-18T06:07:59.134Z,5.60
2023-10-18T06:08:29.505Z,5.62
2023-10-18T06:08:59.911Z,5.62
2023-10-18T06:09:30.576Z,5.62
2023-10-18T06:10:01.146Z,5.62
2023-10-18T06:10:31.563Z,5.62
2023-10-18T06:11:02.002Z,5.65
2023-10-18T06:11:32.388Z,5.63
2023-10-18T06:12:02.797Z,5.65
2023-10-18T06:12:33.207Z,5.65
2023-10-18T06:13:03.669Z,5.66
2023-10-18T06:13:34.087Z,5.66
2023-10-18T06:14:04.509Z,5.67
2023-10-18T06:14:34.915Z,5.69
2023-10-18T06:15:05.329Z,5.69
2023-10-18T06:15:36.054Z,5.70
2023-10-18T06:16:06.539Z,5.70
2023-10-18T06:16:37.083Z,5.73
2023-10-18T06:17:07.910Z,5.70
2023-10-18T06:17:37.928Z,5.70
2023-10-18T06:18:08.323Z,5.74
2023-10-18T06:18:38.756Z,5.73
2023-10-18T06:19:09.229Z,5.77
2023-10-18T06:19:39.626Z,5.77
2023-10-18T06:20:10.059Z,5.77
2023-10-18T06:20:40.452Z,5.78
2023-10-18T06:21:10.868Z,5.78
2023-10-18T06:21:41.273Z,5.78
2023-10-18T06:22:11.718Z,5.80
2023-10-18T06:22:42.113Z,5.80
2023-10-18T06:23:12.553Z,5.83
2023-10-18T06:23:42.974Z,5.83
2023-10-18T06:24:13.397Z,5.83
2023-10-18T06:24:43.845Z,5.83
2023-10-18T06:25:14.294Z,5.83
2023-10-18T06:25:44.722Z,5.84
2023-10-18T06:26:15.160Z,5.84
2023-10-18T06:26:45.565Z,5.83
2023-10-18T06:27:15.980Z,5.84
2023-10-18T06:27:46.445Z,5.84
2023-10-18T06:28:16.853Z,5.85
2023-10-18T06:28:47.286Z,5.85
2023-10-18T06:29:17.695Z,5.85
2023-10-18T06:29:48.097Z,5.87
2023-10-18T06:30:18.509Z,5.85
2023-10-18T06:30:48.974Z,5.84
2023-10-18T06:31:20.746Z,5.83
2023-10-18T06:31:49.898Z,5.83
2023-10-18T06:32:20.502Z,5.84
2023-10-18T06:32:50.928Z,5.84
2023-10-18T06:33:21.325Z,5.84
2023-10-18T06:33:51.806Z,5.84
2023-10-18T06:34:22.244Z,5.84
2023-10-18T06:34:52.616Z,5.84
2023-10-18T06:35:23.038Z,5.84
2023-10-18T06:35:53.491Z,5.85
2023-10-18T06:36:23.874Z,5.85
2023-10-18T06:36:54.382Z,5.87
2023-10-18T06:37:24.808Z,5.87
2023-10-18T06:37:55.216Z,5.85
2023-10-18T06:38:25.819Z,5.87
2023-10-18T06:38:56.420Z,5.85
2023-10-18T06:39:26.826Z,5.87
2023-10-18T06:39:57.258Z,5.87
2023-10-18T06:40:27.679Z,5.87
2023-10-18T06:41:05.251Z,5.88
2023-10-18T06:41:29.584Z,5.88
2023-10-18T06:41:59.342Z,5.87
2023-10-18T06:42:29.738Z,5.88
2023-10-18T06:43:00.204Z,5.90
2023-10-18T06:43:30.643Z,5.90
2023-10-18T06:44:01.102Z,5.90
2023-10-18T06:44:31.767Z,5.95
2023-10-18T06:45:01.759Z,5.95
2023-10-18T06:45:32.188Z,5.92
2023-10-18T06:46:02.723Z,5.92
2023-10-18T06:46:34.959Z,5.95
2023-10-18T06:47:03.636Z,5.93
2023-10-18T06:47:34.057Z,5.95